Terminal Aerodrome Forecast
Issued by NWS

Home | Current Version | Previous Version | Text Only | Print | Product List | Glossary On
Versions: 1 2 3 4 5 6 7 8 9 10 11 12 13 14 15 16 17 18 19 20 21 22 23 24 25 26 27 28 29 30 31 32 33 34 35 36 37 38 39 40 41 42 43 44 45 46 47 48 49 50
000
FTUS44 KHGX 271120
TAFIAH
TAF
KIAH 271120Z 2712/2818 VRB03KT P6SM BKN012 OVC028
      TEMPO 2713/2715 SCT030
     FM271500 19006KT P6SM SCT030 BKN035
     FM271800 20010KT P6SM BKN035
     FM272100 17010KT P6SM VCSH BKN040
     FM280300 16006KT P6SM SCT025 BKN250
     FM280900 15003KT 6SM BR MIFG SCT004 BKN025=

USA.gov is the U.S. government's official web portal to all federal, state and local government web resources and services.